sensor_id;sensor_type;location;lat;lon;timestamp;temperature;humidity
13713;DHT22;6928;50.546;7.120;2023-08-06T00:00:59;15.98;86.53
13713;DHT22;6928;50.546;7.120;2023-08-06T00:03:26;15.92;86.32
13713;DHT22;6928;50.546;7.120;2023-08-06T00:05:53;15.88;86.55
13713;DHT22;6928;50.546;7.120;2023-08-06T00:08:21;15.88;86.60
13713;DHT22;6928;50.546;7.120;2023-08-06T00:10:49;15.85;86.72
13713;DHT22;6928;50.546;7.120;2023-08-06T00:13:16;15.86;86.98
13713;DHT22;6928;50.546;7.120;2023-08-06T00:15:43;15.82;86.74
13713;DHT22;6928;50.546;7.120;2023-08-06T00:18:10;15.85;86.27
13713;DHT22;6928;50.546;7.120;2023-08-06T00:20:39;15.95;86.39
13713;DHT22;6928;50.546;7.120;2023-08-06T00:23:06;16.11;85.61
13713;DHT22;6928;50.546;7.120;2023-08-06T00:25:33;16.32;84.35
13713;DHT22;6928;50.546;7.120;2023-08-06T00:28:01;16.37;84.33
13713;DHT22;6928;50.546;7.120;2023-08-06T00:30:28;16.32;83.71
13713;DHT22;6928;50.546;7.120;2023-08-06T00:32:55;16.22;84.06
13713;DHT22;6928;50.546;7.120;2023-08-06T00:35:22;16.19;84.06
13713;DHT22;6928;50.546;7.120;2023-08-06T00:37:49;16.42;84.03
13713;DHT22;6928;50.546;7.120;2023-08-06T00:40:19;16.18;84.11
13713;DHT22;6928;50.546;7.120;2023-08-06T00:42:46;16.23;83.98
13713;DHT22;6928;50.546;7.120;2023-08-06T00:45:14;16.32;83.51
13713;DHT22;6928;50.546;7.120;2023-08-06T00:47:41;16.29;84.03
13713;DHT22;6928;50.546;7.120;2023-08-06T00:50:09;16.26;83.93
13713;DHT22;6928;50.546;7.120;2023-08-06T00:52:36;16.49;83.30
13713;DHT22;6928;50.546;7.120;2023-08-06T00:55:06;16.64;82.97
13713;DHT22;6928;50.546;7.120;2023-08-06T00:57:33;16.59;83.06
13713;DHT22;6928;50.546;7.120;2023-08-06T01:00:00;16.29;83.85
13713;DHT22;6928;50.546;7.120;2023-08-06T01:02:28;16.37;84.11
13713;DHT22;6928;50.546;7.120;2023-08-06T01:04:55;16.53;83.45
13713;DHT22;6928;50.546;7.120;2023-08-06T01:07:37;16.51;83.41
13713;DHT22;6928;50.546;7.120;2023-08-06T01:10:21;16.51;83.30
13713;DHT22;6928;50.546;7.120;2023-08-06T01:13:01;16.23;84.07
13713;DHT22;6928;50.546;7.120;2023-08-06T01:15:41;16.43;83.78
13713;DHT22;6928;50.546;7.120;2023-08-06T01:18:11;16.39;83.48
13713;DHT22;6928;50.546;7.120;2023-08-06T01:20:40;16.42;83.38
13713;DHT22;6928;50.546;7.120;2023-08-06T01:23:07;15.93;84.88
13713;DHT22;6928;50.546;7.120;2023-08-06T01:25:38;15.85;85.36
13713;DHT22;6928;50.546;7.120;2023-08-06T01:28:15;15.62;86.24
13713;DHT22;6928;50.546;7.120;2023-08-06T01:30:45;15.62;86.58
13713;DHT22;6928;50.546;7.120;2023-08-06T01:33:18;15.55;86.72
13713;DHT22;6928;50.546;7.120;2023-08-06T01:35:49;15.36;87.08
13713;DHT22;6928;50.546;7.120;2023-08-06T01:38:16;15.37;86.40
13713;DHT22;6928;50.546;7.120;2023-08-06T01:40:46;15.40;85.71
13713;DHT22;6928;50.546;7.120;2023-08-06T01:43:13;15.43;85.58
13713;DHT22;6928;50.546;7.120;2023-08-06T01:45:42;15.47;84.60
13713;DHT22;6928;50.546;7.120;2023-08-06T01:48:10;15.46;84.40
13713;DHT22;6928;50.546;7.120;2023-08-06T01:50:36;15.51;84.24
13713;DHT22;6928;50.546;7.120;2023-08-06T01:53:05;15.50;84.01
13713;DHT22;6928;50.546;7.120;2023-08-06T01:55:32;15.75;83.54
13713;DHT22;6928;50.546;7.120;2023-08-06T01:57:59;15.77;83.25
13713;DHT22;6928;50.546;7.120;2023-08-06T02:00:26;15.85;83.08
13713;DHT22;6928;50.546;7.120;2023-08-06T02:02:54;15.77;83.34
13713;DHT22;6928;50.546;7.120;2023-08-06T02:05:23;15.72;83.71
13713;DHT22;6928;50.546;7.120;2023-08-06T02:07:49;15.55;84.42
13713;DHT22;6928;50.546;7.120;2023-08-06T02:10:19;15.60;84.49
13713;DHT22;6928;50.546;7.120;2023-08-06T02:12:46;15.58;84.67
13713;DHT22;6928;50.546;7.120;2023-08-06T02:15:13;15.57;84.67
13713;DHT22;6928;50.546;7.120;2023-08-06T02:17:40;15.55;84.53
13713;DHT22;6928;50.546;7.120;2023-08-06T02:20:10;15.53;84.77
13713;DHT22;6928;50.546;7.120;2023-08-06T02:22:40;15.51;84.68
13713;DHT22;6928;50.546;7.120;2023-08-06T02:25:08;15.46;85.03
13713;DHT22;6928;50.546;7.120;2023-08-06T02:27:37;15.62;84.60
13713;DHT22;6928;50.546;7.120;2023-08-06T02:30:06;15.47;84.78
13713;DHT22;6928;50.546;7.120;2023-08-06T02:32:33;15.58;84.77
13713;DHT22;6928;50.546;7.120;2023-08-06T02:35:01;15.51;84.90
13713;DHT22;6928;50.546;7.120;2023-08-06T02:37:28;15.43;85.32
13713;DHT22;6928;50.546;7.120;2023-08-06T02:39:55;15.46;85.39
13713;DHT22;6928;50.546;7.120;2023-08-06T02:42:22;15.49;84.87
13713;DHT22;6928;50.546;7.120;2023-08-06T02:44:50;15.49;84.86
13713;DHT22;6928;50.546;7.120;2023-08-06T02:47:17;15.46;85.07
13713;DHT22;6928;50.546;7.120;2023-08-06T02:49:44;15.43;85.04
13713;DHT22;6928;50.546;7.120;2023-08-06T02:52:11;15.50;84.91
13713;DHT22;6928;50.546;7.120;2023-08-06T02:54:38;15.53;84.70
13713;DHT22;6928;50.546;7.120;2023-08-06T02:57:06;15.44;84.88
13713;DHT22;6928;50.546;7.120;2023-08-06T02:59:33;15.57;84.66
13713;DHT22;6928;50.546;7.120;2023-08-06T03:02:01;15.55;84.46
13713;DHT22;6928;50.546;7.120;2023-08-06T03:04:28;15.61;84.31
13713;DHT22;6928;50.546;7.120;2023-08-06T03:06:55;15.53;84.63
13713;DHT22;6928;50.546;7.120;2023-08-06T03:09:22;15.70;84.05
13713;DHT22;6928;50.546;7.120;2023-08-06T03:11:49;15.47;84.94
13713;DHT22;6928;50.546;7.120;2023-08-06T03:14:16;15.44;84.87
13713;DHT22;6928;50.546;7.120;2023-08-06T03:16:43;15.47;84.81
13713;DHT22;6928;50.546;7.120;2023-08-06T03:19:11;15.49;84.66
13713;DHT22;6928;50.546;7.120;2023-08-06T03:21:38;15.51;84.75
13713;DHT22;6928;50.546;7.120;2023-08-06T03:24:05;15.51;84.65
13713;DHT22;6928;50.546;7.120;2023-08-06T03:26:33;15.49;84.77
13713;DHT22;6928;50.546;7.120;2023-08-06T03:29:00;15.43;85.35
13713;DHT22;6928;50.546;7.120;2023-08-06T03:31:26;15.34;85.58
13713;DHT22;6928;50.546;7.120;2023-08-06T03:33:53;15.33;85.90
13713;DHT22;6928;50.546;7.120;2023-08-06T03:36:22;15.43;85.67
13713;DHT22;6928;50.546;7.120;2023-08-06T03:38:48;15.50;85.66
13713;DHT22;6928;50.546;7.120;2023-08-06T03:41:16;15.54;85.61
13713;DHT22;6928;50.546;7.120;2023-08-06T03:43:43;15.30;86.56
13713;DHT22;6928;50.546;7.120;2023-08-06T03:46:10;15.29;86.65
13713;DHT22;6928;50.546;7.120;2023-08-06T03:48:37;15.26;86.80
13713;DHT22;6928;50.546;7.120;2023-08-06T03:51:04;15.39;86.71
13713;DHT22;6928;50.546;7.120;2023-08-06T03:53:32;15.54;86.01
13713;DHT22;6928;50.546;7.120;2023-08-06T03:55:59;15.37;86.52
13713;DHT22;6928;50.546;7.120;2023-08-06T03:58:26;15.49;86.24
13713;DHT22;6928;50.546;7.120;2023-08-06T04:00:58;15.51;86.35
13713;DHT22;6928;50.546;7.120;2023-08-06T04:03:26;15.43;86.53
13713;DHT22;6928;50.546;7.120;2023-08-06T04:05:54;15.46;86.55
13713;DHT22;6928;50.546;7.120;2023-08-06T04:08:22;15.47;86.48
13713;DHT22;6928;50.546;7.120;2023-08-06T04:10:52;15.50;86.52
13713;DHT22;6928;50.546;7.120;2023-08-06T04:13:19;15.58;86.29
13713;DHT22;6928;50.546;7.120;2023-08-06T04:15:46;15.74;86.38
13713;DHT22;6928;50.546;7.120;2023-08-06T04:18:14;15.67;87.30
13713;DHT22;6928;50.546;7.120;2023-08-06T04:20:44;15.39;88.48
13713;DHT22;6928;50.546;7.120;2023-08-06T04:23:12;15.43;88.96
13713;DHT22;6928;50.546;7.120;2023-08-06T04:25:39;15.51;88.82
13713;DHT22;6928;50.546;7.120;2023-08-06T04:28:07;15.37;89.11
13713;DHT22;6928;50.546;7.120;2023-08-06T04:30:36;15.47;89.56
13713;DHT22;6928;50.546;7.120;2023-08-06T04:33:07;15.53;89.55
13713;DHT22;6928;50.546;7.120;2023-08-06T04:35:34;15.23;90.65
13713;DHT22;6928;50.546;7.120;2023-08-06T04:38:01;15.39;90.35
13713;DHT22;6928;50.546;7.120;2023-08-06T04:40:28;15.33;90.93
13713;DHT22;6928;50.546;7.120;2023-08-06T04:42:55;15.37;91.41
13713;DHT22;6928;50.546;7.120;2023-08-06T04:45:24;15.39;90.85
13713;DHT22;6928;50.546;7.120;2023-08-06T04:47:51;15.26;91.49
13713;DHT22;6928;50.546;7.120;2023-08-06T04:50:19;15.47;90.96
13713;DHT22;6928;50.546;7.120;2023-08-06T04:52:46;15.46;91.12
13713;DHT22;6928;50.546;7.120;2023-08-06T04:55:12;15.49;91.02
13713;DHT22;6928;50.546;7.120;2023-08-06T04:57:39;15.51;90.76
13713;DHT22;6928;50.546;7.120;2023-08-06T05:00:07;15.41;91.69
13713;DHT22;6928;50.546;7.120;2023-08-06T05:02:36;15.39;91.17
13713;DHT22;6928;50.546;7.120;2023-08-06T05:05:04;15.33;91.45
13713;DHT22;6928;50.546;7.120;2023-08-06T05:07:31;15.49;91.27
13713;DHT22;6928;50.546;7.120;2023-08-06T05:09:59;15.51;91.40
13713;DHT22;6928;50.546;7.120;2023-08-06T05:12:26;15.49;91.93
13713;DHT22;6928;50.546;7.120;2023-08-06T05:14:53;15.51;91.66
13713;DHT22;6928;50.546;7.120;2023-08-06T05:17:20;15.26;92.12
13713;DHT22;6928;50.546;7.120;2023-08-06T05:19:50;15.30;92.36
13713;DHT22;6928;50.546;7.120;2023-08-06T05:22:17;15.43;92.14
13713;DHT22;6928;50.546;7.120;2023-08-06T05:24:44;15.29;92.16
13713;DHT22;6928;50.546;7.120;2023-08-06T05:27:11;15.40;91.93
13713;DHT22;6928;50.546;7.120;2023-08-06T05:29:38;15.39;92.00
13713;DHT22;6928;50.546;7.120;2023-08-06T05:32:05;15.54;91.91
13713;DHT22;6928;50.546;7.120;2023-08-06T05:34:33;15.64;92.16
13713;DHT22;6928;50.546;7.120;2023-08-06T05:37:01;15.32;92.77
13713;DHT22;6928;50.546;7.120;2023-08-06T05:39:28;15.40;92.66
13713;DHT22;6928;50.546;7.120;2023-08-06T05:41:55;15.50;92.27
13713;DHT22;6928;50.546;7.120;2023-08-06T05:44:23;15.51;92.16
13713;DHT22;6928;50.546;7.120;2023-08-06T05:46:50;15.53;92.05
13713;DHT22;6928;50.546;7.120;2023-08-06T05:49:18;15.30;92.75
13713;DHT22;6928;50.546;7.120;2023-08-06T05:51:45;15.49;92.81
13713;DHT22;6928;50.546;7.120;2023-08-06T05:54:14;15.39;92.69
13713;DHT22;6928;50.546;7.120;2023-08-06T05:56:42;15.41;92.64
13713;DHT22;6928;50.546;7.120;2023-08-06T05:59:09;15.17;93.13
13713;DHT22;6928;50.546;7.120;2023-08-06T06:01:38;15.46;92.87
13713;DHT22;6928;50.546;7.120;2023-08-06T06:04:05;15.53;92.78
13713;DHT22;6928;50.546;7.120;2023-08-06T06:06:32;15.46;93.19
13713;DHT22;6928;50.546;7.120;2023-08-06T06:08:59;15.24;93.49
13713;DHT22;6928;50.546;7.120;2023-08-06T06:11:27;15.07;93.30
13713;DHT22;6928;50.546;7.120;2023-08-06T06:13:55;15.13;93.40
13713;DHT22;6928;50.546;7.120;2023-08-06T06:16:22;15.32;93.56
13713;DHT22;6928;50.546;7.120;2023-08-06T06:18:49;15.33;93.01
13713;DHT22;6928;50.546;7.120;2023-08-06T06:21:17;15.26;93.70
13713;DHT22;6928;50.546;7.120;2023-08-06T06:23:44;15.16;93.73
13713;DHT22;6928;50.546;7.120;2023-08-06T06:26:12;15.27;94.08
13713;DHT22;6928;50.546;7.120;2023-08-06T06:28:41;15.27;93.38
13713;DHT22;6928;50.546;7.120;2023-08-06T06:31:08;15.39;93.65
13713;DHT22;6928;50.546;7.120;2023-08-06T06:33:35;15.36;93.85
13713;DHT22;6928;50.546;7.120;2023-08-06T06:36:03;15.44;93.85
13713;DHT22;6928;50.546;7.120;2023-08-06T06:38:30;15.64;93.42
13713;DHT22;6928;50.546;7.120;2023-08-06T06:40:57;15.65;92.99
13713;DHT22;6928;50.546;7.120;2023-08-06T06:43:25;15.74;93.23
13713;DHT22;6928;50.546;7.120;2023-08-06T06:45:56;15.64;92.96
13713;DHT22;6928;50.546;7.120;2023-08-06T06:48:24;15.50;93.03
13713;DHT22;6928;50.546;7.120;2023-08-06T06:50:51;15.49;93.04
13713;DHT22;6928;50.546;7.120;2023-08-06T06:53:18;15.46;92.81
13713;DHT22;6928;50.546;7.120;2023-08-06T06:55:45;15.65;93.08
13713;DHT22;6928;50.546;7.120;2023-08-06T06:58:14;15.74;92.90
13713;DHT22;6928;50.546;7.120;2023-08-06T07:00:42;15.51;93.01
13713;DHT22;6928;50.546;7.120;2023-08-06T07:03:10;15.55;92.69
13713;DHT22;6928;50.546;7.120;2023-08-06T07:05:37;15.58;92.07
13713;DHT22;6928;50.546;7.120;2023-08-06T07:08:04;15.89;92.19
13713;DHT22;6928;50.546;7.120;2023-08-06T07:10:31;15.96;92.48
13713;DHT22;6928;50.546;7.120;2023-08-06T07:12:57;15.72;91.23
13713;DHT22;6928;50.546;7.120;2023-08-06T07:15:24;15.72;91.46
13713;DHT22;6928;50.546;7.120;2023-08-06T07:17:51;15.75;91.85
13713;DHT22;6928;50.546;7.120;2023-08-06T07:20:20;15.96;92.19
13713;DHT22;6928;50.546;7.120;2023-08-06T07:22:49;15.79;90.95
13713;DHT22;6928;50.546;7.120;2023-08-06T07:25:17;15.92;90.90
13713;DHT22;6928;50.546;7.120;2023-08-06T07:27:45;16.01;90.97
13713;DHT22;6928;50.546;7.120;2023-08-06T07:30:11;16.13;91.58
13713;DHT22;6928;50.546;7.120;2023-08-06T07:32:39;16.12;90.58
13713;DHT22;6928;50.546;7.120;2023-08-06T07:35:06;16.12;91.10
13713;DHT22;6928;50.546;7.120;2023-08-06T07:37:36;16.15;90.45
13713;DHT22;6928;50.546;7.120;2023-08-06T07:40:04;16.42;91.11
13713;DHT22;6928;50.546;7.120;2023-08-06T07:42:31;16.54;90.76
13713;DHT22;6928;50.546;7.120;2023-08-06T07:44:58;16.57;89.46
13713;DHT22;6928;50.546;7.120;2023-08-06T07:47:25;16.50;88.08
13713;DHT22;6928;50.546;7.120;2023-08-06T07:49:52;16.67;88.05
13713;DHT22;6928;50.546;7.120;2023-08-06T07:52:19;16.68;88.44
13713;DHT22;6928;50.546;7.120;2023-08-06T07:54:48;16.67;87.23
13713;DHT22;6928;50.546;7.120;2023-08-06T07:57:15;16.91;88.37
13713;DHT22;6928;50.546;7.120;2023-08-06T07:59:42;16.88;88.30
13713;DHT22;6928;50.546;7.120;2023-08-06T08:02:09;17.02;87.98
13713;DHT22;6928;50.546;7.120;2023-08-06T08:04:35;16.94;86.29
13713;DHT22;6928;50.546;7.120;2023-08-06T08:07:02;17.14;86.70
13713;DHT22;6928;50.546;7.120;2023-08-06T08:09:29;17.23;85.42
13713;DHT22;6928;50.546;7.120;2023-08-06T08:11:58;17.36;85.15
13713;DHT22;6928;50.546;7.120;2023-08-06T08:14:26;17.42;85.69
13713;DHT22;6928;50.546;7.120;2023-08-06T08:16:54;17.30;84.10
13713;DHT22;6928;50.546;7.120;2023-08-06T08:19:21;17.42;83.65
13713;DHT22;6928;50.546;7.120;2023-08-06T08:21:48;17.29;83.33
13713;DHT22;6928;50.546;7.120;2023-08-06T08:24:15;17.25;84.65
13713;DHT22;6928;50.546;7.120;2023-08-06T08:26:45;17.15;85.45
13713;DHT22;6928;50.546;7.120;2023-08-06T08:29:14;17.11;83.72
13713;DHT22;6928;50.546;7.120;2023-08-06T08:31:41;17.08;83.93
13713;DHT22;6928;50.546;7.120;2023-08-06T08:34:09;17.18;85.14
13713;DHT22;6928;50.546;7.120;2023-08-06T08:36:36;17.22;85.14
13713;DHT22;6928;50.546;7.120;2023-08-06T08:39:03;17.16;85.11
13713;DHT22;6928;50.546;7.120;2023-08-06T08:41:31;17.14;84.36
13713;DHT22;6928;50.546;7.120;2023-08-06T08:43:59;17.15;83.56
13713;DHT22;6928;50.546;7.120;2023-08-06T08:46:29;17.14;84.09
13713;DHT22;6928;50.546;7.120;2023-08-06T08:48:59;16.95;83.19
13713;DHT22;6928;50.546;7.120;2023-08-06T08:51:27;16.88;84.73
13713;DHT22;6928;50.546;7.120;2023-08-06T08:53:56;16.77;84.90
13713;DHT22;6928;50.546;7.120;2023-08-06T08:56:23;16.70;85.88
13713;DHT22;6928;50.546;7.120;2023-08-06T08:58:50;16.74;86.02
13713;DHT22;6928;50.546;7.120;2023-08-06T09:01:19;16.67;86.50
13713;DHT22;6928;50.546;7.120;2023-08-06T09:03:50;16.74;87.54
13713;DHT22;6928;50.546;7.120;2023-08-06T09:06:18;16.67;86.01
13713;DHT22;6928;50.546;7.120;2023-08-06T09:08:53;16.59;85.88
13713;DHT22;6928;50.546;7.120;2023-08-06T09:11:21;16.70;86.29
13713;DHT22;6928;50.546;7.120;2023-08-06T09:13:48;16.81;87.12
13713;DHT22;6928;50.546;7.120;2023-08-06T09:16:15;16.67;87.87
13713;DHT22;6928;50.546;7.120;2023-08-06T09:18:42;16.59;88.76
13713;DHT22;6928;50.546;7.120;2023-08-06T09:21:15;16.40;89.33
13713;DHT22;6928;50.546;7.120;2023-08-06T09:23:42;16.46;89.93
13713;DHT22;6928;50.546;7.120;2023-08-06T09:26:12;16.40;90.06
13713;DHT22;6928;50.546;7.120;2023-08-06T09:28:39;16.30;90.39
13713;DHT22;6928;50.546;7.120;2023-08-06T09:31:09;16.43;90.22
13713;DHT22;6928;50.546;7.120;2023-08-06T09:33:37;16.36;89.91
13713;DHT22;6928;50.546;7.120;2023-08-06T09:36:09;16.36;90.31
13713;DHT22;6928;50.546;7.120;2023-08-06T09:38:41;16.16;91.13
13713;DHT22;6928;50.546;7.120;2023-08-06T09:41:08;16.26;90.49
13713;DHT22;6928;50.546;7.120;2023-08-06T09:43:41;16.11;90.69
13713;DHT22;6928;50.546;7.120;2023-08-06T09:46:12;15.95;89.87
13713;DHT22;6928;50.546;7.120;2023-08-06T09:48:45;16.11;90.96
13713;DHT22;6928;50.546;7.120;2023-08-06T09:51:13;15.91;89.29
13713;DHT22;6928;50.546;7.120;2023-08-06T09:53:42;15.79;88.42
13713;DHT22;6928;50.546;7.120;2023-08-06T09:56:09;15.74;88.65
13713;DHT22;6928;50.546;7.120;2023-08-06T09:58:39;15.75;87.44
13713;DHT22;6928;50.546;7.120;2023-08-06T10:01:18;15.82;88.20
13713;DHT22;6928;50.546;7.120;2023-08-06T10:03:51;15.96;88.96
13713;DHT22;6928;50.546;7.120;2023-08-06T10:06:19;15.93;88.27
13713;DHT22;6928;50.546;7.120;2023-08-06T10:08:57;16.09;87.91
13713;DHT22;6928;50.546;7.120;2023-08-06T10:11:29;16.12;87.72
13713;DHT22;6928;50.546;7.120;2023-08-06T10:14:02;16.01;87.11
13713;DHT22;6928;50.546;7.120;2023-08-06T10:16:31;16.06;87.03
13713;DHT22;6928;50.546;7.120;2023-08-06T10:18:58;16.18;86.78
13713;DHT22;6928;50.546;7.120;2023-08-06T10:21:26;15.95;86.81
13713;DHT22;6928;50.546;7.120;2023-08-06T10:23:58;15.99;87.21
13713;DHT22;6928;50.546;7.120;2023-08-06T10:26:28;16.04;87.27
13713;DHT22;6928;50.546;7.120;2023-08-06T10:28:55;15.99;87.15
13713;DHT22;6928;50.546;7.120;2023-08-06T10:31:53;15.79;86.79
13713;DHT22;6928;50.546;7.120;2023-08-06T10:34:20;15.84;87.03
13713;DHT22;6928;50.546;7.120;2023-08-06T10:36:47;15.88;86.21
13713;DHT22;6928;50.546;7.120;2023-08-06T10:39:16;15.99;87.62
13713;DHT22;6928;50.546;7.120;2023-08-06T10:41:43;16.22;86.76
13713;DHT22;6928;50.546;7.120;2023-08-06T10:44:11;16.30;86.53
13713;DHT22;6928;50.546;7.120;2023-08-06T10:46:38;16.05;86.10
13713;DHT22;6928;50.546;7.120;2023-08-06T10:49:05;16.19;86.11
13713;DHT22;6928;50.546;7.120;2023-08-06T10:51:33;16.23;86.31
13713;DHT22;6928;50.546;7.120;2023-08-06T10:54:00;16.39;86.07
13713;DHT22;6928;50.546;7.120;2023-08-06T10:56:28;16.23;85.40
13713;DHT22;6928;50.546;7.120;2023-08-06T10:58:57;15.96;84.95
13713;DHT22;6928;50.546;7.120;2023-08-06T11:01:24;15.86;84.99
13713;DHT22;6928;50.546;7.120;2023-08-06T11:03:55;15.82;85.34
13713;DHT22;6928;50.546;7.120;2023-08-06T11:06:22;15.81;86.27
13713;DHT22;6928;50.546;7.120;2023-08-06T11:08:52;15.79;86.16
13713;DHT22;6928;50.546;7.120;2023-08-06T11:11:19;15.78;86.09
13713;DHT22;6928;50.546;7.120;2023-08-06T11:13:49;15.79;86.17
13713;DHT22;6928;50.546;7.120;2023-08-06T11:16:19;15.82;87.12
13713;DHT22;6928;50.546;7.120;2023-08-06T11:18:47;15.92;87.30
13713;DHT22;6928;50.546;7.120;2023-08-06T11:21:13;15.81;86.69
13713;DHT22;6928;50.546;7.120;2023-08-06T11:23:41;15.88;86.88
13713;DHT22;6928;50.546;7.120;2023-08-06T11:26:08;15.98;87.22
13713;DHT22;6928;50.546;7.120;2023-08-06T11:28:34;15.78;85.95
13713;DHT22;6928;50.546;7.120;2023-08-06T11:31:03;15.86;86.48
13713;DHT22;6928;50.546;7.120;2023-08-06T11:33:30;15.91;86.28
13713;DHT22;6928;50.546;7.120;2023-08-06T11:35:59;15.74;85.54
13713;DHT22;6928;50.546;7.120;2023-08-06T11:38:30;15.70;87.18
13713;DHT22;6928;50.546;7.120;2023-08-06T11:40:57;15.68;86.20
13713;DHT22;6928;50.546;7.120;2023-08-06T11:43:23;15.58;85.83
13713;DHT22;6928;50.546;7.120;2023-08-06T11:45:51;15.77;87.35
13713;DHT22;6928;50.546;7.120;2023-08-06T11:48:21;15.71;86.90
13713;DHT22;6928;50.546;7.120;2023-08-06T11:50:48;15.72;86.41
13713;DHT22;6928;50.546;7.120;2023-08-06T11:53:15;15.72;86.62
13713;DHT22;6928;50.546;7.120;2023-08-06T11:55:42;15.72;86.27
13713;DHT22;6928;50.546;7.120;2023-08-06T11:58:10;15.71;86.42
13713;DHT22;6928;50.546;7.120;2023-08-06T12:00:38;15.81;86.26
13713;DHT22;6928;50.546;7.120;2023-08-06T12:03:05;15.75;86.09
13713;DHT22;6928;50.546;7.120;2023-08-06T12:05:33;15.88;86.10
13713;DHT22;6928;50.546;7.120;2023-08-06T12:08:02;15.96;86.40
13713;DHT22;6928;50.546;7.120;2023-08-06T12:10:30;15.98;86.98
13713;DHT22;6928;50.546;7.120;2023-08-06T12:12:58;15.98;86.29
13713;DHT22;6928;50.546;7.120;2023-08-06T12:15:25;16.04;86.64
13713;DHT22;6928;50.546;7.120;2023-08-06T12:17:52;15.98;86.88
13713;DHT22;6928;50.546;7.120;2023-08-06T12:20:19;16.01;86.92
13713;DHT22;6928;50.546;7.120;2023-08-06T12:22:47;16.16;87.79
13713;DHT22;6928;50.546;7.120;2023-08-06T12:25:14;16.13;87.48
13713;DHT22;6928;50.546;7.120;2023-08-06T12:27:42;16.12;87.59
13713;DHT22;6928;50.546;7.120;2023-08-06T12:30:10;16.29;88.74
13713;DHT22;6928;50.546;7.120;2023-08-06T12:32:38;16.11;87.98
13713;DHT22;6928;50.546;7.120;2023-08-06T12:35:07;15.85;86.63
13713;DHT22;6928;50.546;7.120;2023-08-06T12:37:35;16.01;88.38
13713;DHT22;6928;50.546;7.120;2023-08-06T12:40:06;15.84;87.40
13713;DHT22;6928;50.546;7.120;2023-08-06T12:42:34;15.78;87.46
13713;DHT22;6928;50.546;7.120;2023-08-06T12:45:00;15.81;88.42
13713;DHT22;6928;50.546;7.120;2023-08-06T12:47:28;15.85;88.58
13713;DHT22;6928;50.546;7.120;2023-08-06T12:49:54;15.86;88.05
13713;DHT22;6928;50.546;7.120;2023-08-06T12:52:21;15.81;88.58
13713;DHT22;6928;50.546;7.120;2023-08-06T12:54:48;15.72;88.49
13713;DHT22;6928;50.546;7.120;2023-08-06T12:57:16;15.84;89.05
13713;DHT22;6928;50.546;7.120;2023-08-06T12:59:43;15.82;88.76
13713;DHT22;6928;50.546;7.120;2023-08-06T13:02:10;15.71;88.72
13713;DHT22;6928;50.546;7.120;2023-08-06T13:04:36;15.70;88.48
13713;DHT22;6928;50.546;7.120;2023-08-06T13:07:03;15.57;88.45
13713;DHT22;6928;50.546;7.120;2023-08-06T13:09:31;15.62;89.45
13713;DHT22;6928;50.546;7.120;2023-08-06T13:12:02;15.58;88.66
13713;DHT22;6928;50.546;7.120;2023-08-06T13:14:32;15.74;88.59
13713;DHT22;6928;50.546;7.120;2023-08-06T13:16:59;15.62;89.05
13713;DHT22;6928;50.546;7.120;2023-08-06T13:19:27;15.65;89.18
13713;DHT22;6928;50.546;7.120;2023-08-06T13:22:02;15.70;89.61
13713;DHT22;6928;50.546;7.120;2023-08-06T13:24:32;15.62;89.11
13713;DHT22;6928;50.546;7.120;2023-08-06T13:27:00;15.65;89.93
13713;DHT22;6928;50.546;7.120;2023-08-06T13:29:27;15.57;88.83
13713;DHT22;6928;50.546;7.120;2023-08-06T13:31:55;15.43;87.91
13713;DHT22;6928;50.546;7.120;2023-08-06T13:34:22;15.51;89.29
13713;DHT22;6928;50.546;7.120;2023-08-06T13:36:49;15.39;88.11
13713;DHT22;6928;50.546;7.120;2023-08-06T13:39:16;15.29;87.86
13713;DHT22;6928;50.546;7.120;2023-08-06T13:41:44;15.30;88.80
13713;DHT22;6928;50.546;7.120;2023-08-06T13:44:10;15.26;88.85
13713;DHT22;6928;50.546;7.120;2023-08-06T13:46:40;15.30;89.23
13713;DHT22;6928;50.546;7.120;2023-08-06T13:49:08;15.20;88.71
13713;DHT22;6928;50.546;7.120;2023-08-06T13:51:35;15.19;89.19
13713;DHT22;6928;50.546;7.120;2023-08-06T13:54:03;15.19;88.92
13713;DHT22;6928;50.546;7.120;2023-08-06T13:56:31;15.13;88.86
13713;DHT22;6928;50.546;7.120;2023-08-06T13:58:58;15.17;89.23
13713;DHT22;6928;50.546;7.120;2023-08-06T14:01:25;15.19;89.49
13713;DHT22;6928;50.546;7.120;2023-08-06T14:03:52;15.23;90.15
13713;DHT22;6928;50.546;7.120;2023-08-06T14:06:21;15.20;90.51
13713;DHT22;6928;50.546;7.120;2023-08-06T14:08:48;15.22;89.54
13713;DHT22;6928;50.546;7.120;2023-08-06T14:11:15;15.26;89.56
13713;DHT22;6928;50.546;7.120;2023-08-06T14:13:42;15.29;89.67
13713;DHT22;6928;50.546;7.120;2023-08-06T14:16:10;15.22;88.95
13713;DHT22;6928;50.546;7.120;2023-08-06T14:18:37;15.26;90.01
13713;DHT22;6928;50.546;7.120;2023-08-06T14:21:07;15.27;89.44
13713;DHT22;6928;50.546;7.120;2023-08-06T14:23:35;15.27;89.95
13713;DHT22;6928;50.546;7.120;2023-08-06T14:26:04;15.17;89.53
13713;DHT22;6928;50.546;7.120;2023-08-06T14:28:32;15.16;90.28
13713;DHT22;6928;50.546;7.120;2023-08-06T14:30:59;15.17;89.15
13713;DHT22;6928;50.546;7.120;2023-08-06T14:33:26;15.27;89.77
13713;DHT22;6928;50.546;7.120;2023-08-06T14:35:53;15.12;88.80
13713;DHT22;6928;50.546;7.120;2023-08-06T14:38:20;15.16;88.94
13713;DHT22;6928;50.546;7.120;2023-08-06T14:40:48;15.29;90.12
13713;DHT22;6928;50.546;7.120;2023-08-06T14:43:15;15.22;89.37
13713;DHT22;6928;50.546;7.120;2023-08-06T14:45:42;15.29;89.41
13713;DHT22;6928;50.546;7.120;2023-08-06T14:48:09;15.33;89.79
13713;DHT22;6928;50.546;7.120;2023-08-06T14:50:36;15.36;89.99
13713;DHT22;6928;50.546;7.120;2023-08-06T14:53:04;15.20;88.97
13713;DHT22;6928;50.546;7.120;2023-08-06T14:55:32;15.39;89.17
13713;DHT22;6928;50.546;7.120;2023-08-06T14:58:01;15.40;89.38
13713;DHT22;6928;50.546;7.120;2023-08-06T15:00:28;15.22;88.53
13713;DHT22;6928;50.546;7.120;2023-08-06T15:02:54;15.24;88.89
13713;DHT22;6928;50.546;7.120;2023-08-06T15:05:21;15.33;89.22
13713;DHT22;6928;50.546;7.120;2023-08-06T15:07:48;15.32;89.48
13713;DHT22;6928;50.546;7.120;2023-08-06T15:10:15;15.36;88.96
13713;DHT22;6928;50.546;7.120;2023-08-06T15:12:42;15.32;88.63
13713;DHT22;6928;50.546;7.120;2023-08-06T15:15:11;15.36;88.87
13713;DHT22;6928;50.546;7.120;2023-08-06T15:17:38;15.41;88.73
13713;DHT22;6928;50.546;7.120;2023-08-06T15:20:07;15.34;88.55
13713;DHT22;6928;50.546;7.120;2023-08-06T15:22:34;15.55;88.35
13713;DHT22;6928;50.546;7.120;2023-08-06T15:25:01;15.55;89.44
13713;DHT22;6928;50.546;7.120;2023-08-06T15:27:29;15.33;87.81
13713;DHT22;6928;50.546;7.120;2023-08-06T15:29:57;15.47;88.64
13713;DHT22;6928;50.546;7.120;2023-08-06T15:32:25;15.47;89.52
13713;DHT22;6928;50.546;7.120;2023-08-06T15:34:53;15.44;88.60
13713;DHT22;6928;50.546;7.120;2023-08-06T15:37:20;15.34;88.55
13713;DHT22;6928;50.546;7.120;2023-08-06T15:39:47;15.40;88.94
13713;DHT22;6928;50.546;7.120;2023-08-06T15:42:13;15.37;87.82
13713;DHT22;6928;50.546;7.120;2023-08-06T15:44:41;15.36;88.01
13713;DHT22;6928;50.546;7.120;2023-08-06T15:47:08;15.37;88.31
13713;DHT22;6928;50.546;7.120;2023-08-06T15:49:36;15.37;88.38